Time;durP1;ratioP1;P1;durP2;ratioP2;P2;SDS_P1;SDS_P2;PMS_P1;PMS_P2;Temp;Humidity;BMP_temperature;BMP_pressure;BME280_temperature;BME280_humidity;BME280_pressure;Samples;Min_cycle;Max_cycle;Signal;HPM_P1;HPM_P2
2023/12/23 00:00:22;;;;;;;;;;;5.90;99.90;;;;;;4973143;28;19980;-71
2023/12/23 00:02:50;;;;;;;;;;;5.80;99.90;;;;;;4978655;28;20379;-71
2023/12/23 00:05:18;;;;;;;;;;;5.80;99.90;;;;;;4980052;28;23282;-71
2023/12/23 00:07:44;;;;;;;;;;;5.80;99.90;;;;;;4975133;28;20664;-71
2023/12/23 00:10:10;;;;;;;;;;;5.80;99.90;;;;;;4973669;28;20057;-72
2023/12/23 00:12:35;;;;;;;;;;;5.80;99.90;;;;;;4977013;28;19921;-71
2023/12/23 00:15:01;;;;;;;;;;;5.70;99.90;;;;;;4972775;28;20553;-72
2023/12/23 00:17:26;;;;;;;;;;;5.70;99.90;;;;;;4977637;28;20463;-71
2023/12/23 00:19:52;;;;;;;;;;;5.70;99.90;;;;;;4976019;28;19917;-71
2023/12/23 00:22:17;;;;;;;;;;;5.60;99.90;;;;;;4976114;28;20540;-71
2023/12/23 00:24:43;;;;;;;;;;;5.60;99.90;;;;;;4978054;28;19918;-71
2023/12/23 00:27:09;;;;;;;;;;;5.50;99.90;;;;;;4974321;28;19924;-71
2023/12/23 00:29:34;;;;;;;;;;;5.50;99.90;;;;;;4979073;28;19918;-71
2023/12/23 00:32:00;;;;;;;;;;;5.50;99.90;;;;;;4974102;28;19918;-71
2023/12/23 00:34:25;;;;;;;;;;;5.40;99.90;;;;;;4972390;28;20416;-72
2023/12/23 00:36:51;;;;;;;;;;;5.50;99.90;;;;;;4976081;28;19919;-71
2023/12/23 00:39:16;;;;;;;;;;;5.40;99.90;;;;;;4974005;28;20216;-71
2023/12/23 00:41:42;;;;;;;;;;;5.40;99.90;;;;;;4975595;28;20339;-71
2023/12/23 00:44:09;;;;;;;;;;;5.40;99.90;;;;;;4971310;28;19924;-71
2023/12/23 00:46:35;;;;;;;;;;;5.40;99.90;;;;;;4998925;22;20319;-71
2023/12/23 00:49:03;;;;;;;;;;;5.40;99.90;;;;;;4995575;28;19923;-71
2023/12/23 00:51:29;;;;;;;;;;;5.40;99.90;;;;;;4994340;28;19965;-71
2023/12/23 00:53:54;;;;;;;;;;;5.40;99.90;;;;;;4992891;28;19974;-71
2023/12/23 00:56:20;;;;;;;;;;;5.40;99.90;;;;;;4994069;28;19956;-72
2023/12/23 00:58:46;;;;;;;;;;;5.40;99.90;;;;;;4994164;28;20525;-71
2023/12/23 01:01:12;;;;;;;;;;;5.40;99.90;;;;;;4993443;28;19971;-71
2023/12/23 01:03:37;;;;;;;;;;;5.40;99.90;;;;;;4995946;28;19917;-71
2023/12/23 01:06:03;;;;;;;;;;;5.30;99.90;;;;;;4995889;28;20525;-71
2023/12/23 01:08:28;;;;;;;;;;;5.30;99.90;;;;;;4993530;28;19938;-71
2023/12/23 01:10:54;;;;;;;;;;;5.30;99.90;;;;;;4995440;28;19924;-71
2023/12/23 01:13:20;;;;;;;;;;;5.20;99.90;;;;;;4993695;28;19917;-71
2023/12/23 01:15:45;;;;;;;;;;;5.20;99.90;;;;;;4990649;28;20929;-71
2023/12/23 01:18:11;;;;;;;;;;;5.20;99.90;;;;;;4995817;28;20005;-71
2023/12/23 01:20:38;;;;;;;;;;;5.20;99.90;;;;;;4992659;28;19921;-71
2023/12/23 01:23:04;;;;;;;;;;;5.20;99.90;;;;;;4994634;28;19999;-71
2023/12/23 01:25:29;;;;;;;;;;;5.30;99.90;;;;;;4994579;28;19922;-71
2023/12/23 01:27:55;;;;;;;;;;;5.20;99.90;;;;;;4995145;28;19913;-71
2023/12/23 01:30:20;;;;;;;;;;;5.20;99.90;;;;;;4993965;28;20363;-71
2023/12/23 01:32:53;;;;;;;;;;;5.20;99.90;;;;;;4992920;28;19916;-71
2023/12/23 01:35:18;;;;;;;;;;;5.10;99.90;;;;;;4993140;28;19959;-71
2023/12/23 01:37:46;;;;;;;;;;;5.10;99.90;;;;;;4992492;28;20343;-71
2023/12/23 01:40:12;;;;;;;;;;;5.20;99.90;;;;;;4997860;28;19935;-71
2023/12/23 01:42:37;;;;;;;;;;;5.20;99.90;;;;;;4995624;28;19918;-71
2023/12/23 01:45:03;;;;;;;;;;;5.20;99.90;;;;;;4991177;28;19917;-71
2023/12/23 01:47:29;;;;;;;;;;;5.20;99.90;;;;;;4993759;28;19929;-71
2023/12/23 01:49:56;;;;;;;;;;;5.20;99.90;;;;;;4993419;28;20618;-71
2023/12/23 01:52:24;;;;;;;;;;;5.20;99.90;;;;;;4994908;28;19938;-71
2023/12/23 01:54:49;;;;;;;;;;;5.30;99.90;;;;;;4992489;28;19956;-71
2023/12/23 01:57:17;;;;;;;;;;;5.30;99.90;;;;;;4993295;28;20035;-71
2023/12/23 01:59:43;;;;;;;;;;;5.30;99.90;;;;;;4992554;28;19917;-71
2023/12/23 02:02:08;;;;;;;;;;;5.30;99.90;;;;;;4994007;28;19921;-71
2023/12/23 02:04:37;;;;;;;;;;;5.30;99.90;;;;;;4993842;28;19913;-71
2023/12/23 02:07:03;;;;;;;;;;;5.30;99.90;;;;;;4993848;28;19917;-71
2023/12/23 02:09:28;;;;;;;;;;;5.40;99.90;;;;;;4994267;28;19976;-71
2023/12/23 02:12:15;;;;;;;;;;;5.40;99.90;;;;;;4995047;28;20627;-70
2023/12/23 02:14:45;;;;;;;;;;;5.40;99.90;;;;;;4991684;28;19912;-71
2023/12/23 02:17:12;;;;;;;;;;;5.50;99.90;;;;;;4996804;28;19917;-71
2023/12/23 02:19:40;;;;;;;;;;;5.50;99.90;;;;;;4994951;28;20008;-71
2023/12/23 02:22:05;;;;;;;;;;;5.50;99.90;;;;;;4991098;28;20264;-71
2023/12/23 02:24:31;;;;;;;;;;;5.50;99.90;;;;;;4991704;28;19963;-71
2023/12/23 02:26:59;;;;;;;;;;;5.50;99.90;;;;;;4993456;28;19924;-71
2023/12/23 02:29:26;;;;;;;;;;;5.50;99.90;;;;;;4992415;28;19996;-71
2023/12/23 02:31:52;;;;;;;;;;;5.50;99.90;;;;;;4991527;28;19916;-71
2023/12/23 02:34:18;;;;;;;;;;;5.60;99.90;;;;;;4994409;28;19913;-71
2023/12/23 02:36:43;;;;;;;;;;;5.50;99.90;;;;;;4990435;28;20414;-71
2023/12/23 02:39:09;;;;;;;;;;;5.60;99.90;;;;;;4991558;28;20568;-71
2023/12/23 02:41:34;;;;;;;;;;;5.60;99.90;;;;;;4992065;28;20461;-71
2023/12/23 02:44:00;;;;;;;;;;;5.60;99.90;;;;;;4991571;28;19913;-71
2023/12/23 02:46:28;;;;;;;;;;;5.60;99.90;;;;;;4992878;28;19913;-71
2023/12/23 02:48:53;;;;;;;;;;;5.60;99.90;;;;;;4990647;28;20010;-71
2023/12/23 02:51:19;;;;;;;;;;;5.60;99.90;;;;;;4994849;28;20059;-71
2023/12/23 02:53:44;;;;;;;;;;;5.60;99.90;;;;;;4990003;28;20363;-71
2023/12/23 02:56:10;;;;;;;;;;;5.60;99.90;;;;;;4992150;28;19948;-71
2023/12/23 02:58:35;;;;;;;;;;;5.70;99.90;;;;;;4990326;28;20143;-71
2023/12/23 03:01:06;;;;;;;;;;;5.70;99.90;;;;;;4990174;28;19917;-71
2023/12/23 03:03:32;;;;;;;;;;;5.70;99.90;;;;;;4993131;28;19927;-71
2023/12/23 03:06:00;;;;;;;;;;;5.70;99.90;;;;;;4991844;28;21469;-71
2023/12/23 03:08:28;;;;;;;;;;;5.70;99.90;;;;;;4990169;28;19924;-71
2023/12/23 03:10:55;;;;;;;;;;;5.80;99.90;;;;;;4990450;28;19917;-71
2023/12/23 03:13:23;;;;;;;;;;;5.80;99.90;;;;;;4993719;28;19932;-71
2023/12/23 03:15:48;;;;;;;;;;;5.80;99.90;;;;;;4988977;28;19916;-71
2023/12/23 03:18:14;;;;;;;;;;;5.90;99.90;;;;;;4992331;28;20488;-71
2023/12/23 03:20:39;;;;;;;;;;;5.90;99.90;;;;;;4990268;28;19921;-71
2023/12/23 03:23:05;;;;;;;;;;;5.90;99.90;;;;;;4992266;28;19996;-71
2023/12/23 03:25:30;;;;;;;;;;;5.90;99.90;;;;;;4989845;28;20435;-71
2023/12/23 03:27:56;;;;;;;;;;;6.00;99.90;;;;;;4993082;28;19917;-71
2023/12/23 03:30:21;;;;;;;;;;;5.90;99.90;;;;;;4989821;28;19983;-71
2023/12/23 03:32:47;;;;;;;;;;;6.00;99.90;;;;;;4991807;28;20718;-71
2023/12/23 03:35:12;;;;;;;;;;;6.00;99.90;;;;;;4991566;28;20077;-71
2023/12/23 03:37:38;;;;;;;;;;;6.00;99.90;;;;;;4992626;28;19927;-71
2023/12/23 03:40:04;;;;;;;;;;;5.90;99.90;;;;;;4991057;28;19924;-71
2023/12/23 03:42:32;;;;;;;;;;;5.90;99.90;;;;;;4993311;28;19917;-71
2023/12/23 03:44:57;;;;;;;;;;;6.00;99.90;;;;;;4989990;28;19960;-72
2023/12/23 03:47:25;;;;;;;;;;;5.90;99.90;;;;;;4992211;28;19917;-71
2023/12/23 03:49:53;;;;;;;;;;;5.90;99.90;;;;;;4991518;28;19917;-71
2023/12/23 03:52:21;;;;;;;;;;;5.90;99.90;;;;;;4990955;28;19920;-71
2023/12/23 03:54:46;;;;;;;;;;;5.90;99.90;;;;;;4990163;28;19922;-71
2023/12/23 03:57:14;;;;;;;;;;;5.80;99.90;;;;;;4992582;28;19920;-71
2023/12/23 03:59:42;;;;;;;;;;;5.80;99.90;;;;;;4989798;28;19917;-71
2023/12/23 04:02:10;;;;;;;;;;;5.80;99.90;;;;;;4992024;28;19920;-71
2023/12/23 04:04:39;;;;;;;;;;;5.80;99.90;;;;;;4991762;28;19928;-71
2023/12/23 04:07:04;;;;;;;;;;;5.80;99.90;;;;;;4990067;28;19917;-71
2023/12/23 04:09:32;;;;;;;;;;;5.90;99.90;;;;;;4990111;28;19964;-71
2023/12/23 04:12:00;;;;;;;;;;;5.90;99.90;;;;;;4989750;28;19913;-71
2023/12/23 04:14:25;;;;;;;;;;;5.90;99.90;;;;;;4989551;28;19920;-71
2023/12/23 04:16:51;;;;;;;;;;;5.90;99.90;;;;;;4993738;28;19913;-71
2023/12/23 04:19:16;;;;;;;;;;;5.90;99.90;;;;;;4995930;23;19972;-71
2023/12/23 04:21:42;;;;;;;;;;;5.90;99.90;;;;;;4976258;28;19921;-71
2023/12/23 04:24:07;;;;;;;;;;;5.90;99.90;;;;;;4973044;28;19917;-71
2023/12/23 04:26:33;;;;;;;;;;;5.90;99.90;;;;;;4978526;28;20043;-71
2023/12/23 04:29:01;;;;;;;;;;;6.00;99.90;;;;;;4974849;28;19913;-71
2023/12/23 04:31:26;;;;;;;;;;;6.00;99.90;;;;;;4975825;28;19917;-72
2023/12/23 04:33:52;;;;;;;;;;;6.00;99.90;;;;;;4974185;28;19917;-71
2023/12/23 04:36:17;;;;;;;;;;;6.00;99.90;;;;;;4977841;28;22042;-71
2023/12/23 04:38:43;;;;;;;;;;;6.00;99.90;;;;;;4975910;28;22202;-71
2023/12/23 04:41:08;;;;;;;;;;;6.00;99.90;;;;;;4974883;28;19922;-71
2023/12/23 04:43:34;;;;;;;;;;;6.00;99.90;;;;;;4976610;28;20286;-71
2023/12/23 04:45:59;;;;;;;;;;;6.00;99.90;;;;;;4978138;28;20012;-71
2023/12/23 04:48:26;;;;;;;;;;;6.00;99.90;;;;;;4982830;28;19914;-71
2023/12/23 04:50:54;;;;;;;;;;;6.00;99.90;;;;;;4979774;28;19924;-71
2023/12/23 04:53:25;;;;;;;;;;;6.10;99.90;;;;;;4980046;28;19924;-71
2023/12/23 04:55:53;;;;;;;;;;;6.00;99.90;;;;;;4979049;28;19922;-71
2023/12/23 04:58:20;;;;;;;;;;;6.00;99.90;;;;;;4980501;28;19914;-71
2023/12/23 05:00:47;;;;;;;;;;;6.00;99.90;;;;;;4977335;28;19921;-71
2023/12/23 05:03:12;;;;;;;;;;;6.00;99.90;;;;;;4980006;28;19918;-71
2023/12/23 05:05:40;;;;;;;;;;;6.10;99.90;;;;;;4977971;28;19965;-71
2023/12/23 05:08:06;;;;;;;;;;;6.00;99.90;;;;;;4979842;28;20387;-71
2023/12/23 05:10:31;;;;;;;;;;;6.00;99.90;;;;;;4980779;28;19917;-71
2023/12/23 05:12:57;;;;;;;;;;;6.10;99.90;;;;;;4978304;28;19924;-71
2023/12/23 05:15:23;;;;;;;;;;;6.10;99.90;;;;;;4976522;28;20419;-71
2023/12/23 05:17:49;;;;;;;;;;;6.00;99.90;;;;;;4979572;28;19944;-71
2023/12/23 05:20:14;;;;;;;;;;;6.00;99.90;;;;;;4978984;28;19968;-71
2023/12/23 05:22:40;;;;;;;;;;;6.00;99.90;;;;;;4977583;28;21887;-71
2023/12/23 05:25:06;;;;;;;;;;;6.10;99.90;;;;;;4977726;28;19957;-71
2023/12/23 05:27:31;;;;;;;;;;;6.10;99.90;;;;;;4979496;28;19925;-71
2023/12/23 05:29:57;;;;;;;;;;;6.10;99.90;;;;;;4978020;28;19925;-71
2023/12/23 05:32:22;;;;;;;;;;;6.10;99.90;;;;;;4978449;28;19913;-71
2023/12/23 05:34:48;;;;;;;;;;;6.20;99.90;;;;;;4978820;28;19924;-71
2023/12/23 05:37:13;;;;;;;;;;;6.20;99.90;;;;;;4977556;28;20244;-71
2023/12/23 05:39:40;;;;;;;;;;;6.20;99.90;;;;;;4977709;28;20171;-71
2023/12/23 05:42:06;;;;;;;;;;;6.20;99.90;;;;;;4979410;28;19921;-71
2023/12/23 05:44:34;;;;;;;;;;;6.20;99.90;;;;;;4977008;28;19978;-71
2023/12/23 05:46:59;;;;;;;;;;;6.10;99.90;;;;;;4977614;28;19952;-71
2023/12/23 05:49:25;;;;;;;;;;;6.10;99.90;;;;;;4976690;28;20577;-71
2023/12/23 05:51:53;;;;;;;;;;;6.10;99.90;;;;;;4977369;28;19918;-71
2023/12/23 05:54:19;;;;;;;;;;;6.10;99.90;;;;;;4977011;28;19960;-71
2023/12/23 05:56:47;;;;;;;;;;;6.10;99.90;;;;;;4978678;28;19963;-71
2023/12/23 05:59:12;;;;;;;;;;;6.00;99.90;;;;;;4977500;28;20372;-71
2023/12/23 06:01:37;;;;;;;;;;;6.00;99.90;;;;;;4978536;28;21573;-71
2023/12/23 06:04:03;;;;;;;;;;;6.00;99.90;;;;;;4977873;28;20288;-71
2023/12/23 06:06:28;;;;;;;;;;;6.00;99.90;;;;;;4977780;28;19955;-71
2023/12/23 06:08:54;;;;;;;;;;;6.00;99.90;;;;;;4977221;28;19929;-71
2023/12/23 06:11:19;;;;;;;;;;;6.00;99.90;;;;;;4978568;28;19913;-71
2023/12/23 06:13:45;;;;;;;;;;;6.00;99.90;;;;;;4976664;28;21978;-71
2023/12/23 06:16:10;;;;;;;;;;;6.00;99.90;;;;;;4977603;28;19917;-71
2023/12/23 06:18:36;;;;;;;;;;;6.10;99.90;;;;;;4980514;28;19918;-71
2023/12/23 06:21:01;;;;;;;;;;;6.00;99.90;;;;;;4977409;28;19921;-71
2023/12/23 06:23:27;;;;;;;;;;;6.10;99.90;;;;;;4978240;28;19979;-71
2023/12/23 06:25:52;;;;;;;;;;;6.10;99.90;;;;;;4977295;28;19917;-71
2023/12/23 06:28:20;;;;;;;;;;;6.00;99.90;;;;;;4977059;28;20012;-71
2023/12/23 06:30:48;;;;;;;;;;;5.90;99.90;;;;;;4978180;28;19913;-71
2023/12/23 06:33:13;;;;;;;;;;;6.00;99.90;;;;;;4978282;28;19917;-70
2023/12/23 06:35:39;;;;;;;;;;;6.00;99.90;;;;;;4977877;28;19936;-71
2023/12/23 06:38:04;;;;;;;;;;;5.90;99.90;;;;;;4976886;28;19918;-71
2023/12/23 06:40:30;;;;;;;;;;;5.90;99.90;;;;;;4976622;28;20435;-71
2023/12/23 06:42:55;;;;;;;;;;;5.90;99.90;;;;;;4976312;28;20055;-71
2023/12/23 06:45:21;;;;;;;;;;;5.90;99.90;;;;;;4975970;28;20124;-71
2023/12/23 06:47:46;;;;;;;;;;;5.80;99.90;;;;;;4984050;23;19929;-71
2023/12/23 06:50:12;;;;;;;;;;;5.90;99.90;;;;;;4978703;28;19918;-71
2023/12/23 06:52:37;;;;;;;;;;;5.90;99.90;;;;;;4978515;28;20702;-71
2023/12/23 06:55:03;;;;;;;;;;;5.90;99.90;;;;;;4977105;28;20152;-71
2023/12/23 06:57:29;;;;;;;;;;;5.90;99.90;;;;;;4977870;28;20016;-71
2023/12/23 06:59:56;;;;;;;;;;;5.90;99.90;;;;;;4976210;28;20015;-71
2023/12/23 07:02:24;;;;;;;;;;;5.90;99.90;;;;;;4976424;28;19927;-71
2023/12/23 07:04:50;;;;;;;;;;;5.90;99.90;;;;;;4977477;28;20330;-71
2023/12/23 07:07:15;;;;;;;;;;;5.90;99.90;;;;;;4977408;28;19917;-71
2023/12/23 07:09:41;;;;;;;;;;;5.80;99.90;;;;;;4976150;28;19921;-71
2023/12/23 07:12:08;;;;;;;;;;;5.80;99.90;;;;;;4963211;28;19921;-71
2023/12/23 07:14:52;;;;;;;;;;;5.80;99.90;;;;;;5054407;27;20294;-71
2023/12/23 07:17:20;;;;;;;;;;;5.80;99.90;;;;;;5038539;28;20206;-70
2023/12/23 07:19:45;;;;;;;;;;;5.80;99.90;;;;;;5035693;28;19920;-72
2023/12/23 07:22:10;;;;;;;;;;;5.70;99.90;;;;;;5036041;28;19920;-70
2023/12/23 07:24:39;;;;;;;;;;;5.80;99.90;;;;;;5034576;28;19927;-70
2023/12/23 07:27:04;;;;;;;;;;;5.80;99.90;;;;;;5035532;28;20217;-70
2023/12/23 07:29:30;;;;;;;;;;;5.80;99.90;;;;;;5037645;28;20298;-70
2023/12/23 07:31:55;;;;;;;;;;;5.90;99.90;;;;;;5036680;28;21474;-71
2023/12/23 07:34:21;;;;;;;;;;;6.00;99.90;;;;;;5035693;28;19932;-71
2023/12/23 07:36:46;;;;;;;;;;;5.90;99.90;;;;;;5035645;28;20197;-71
2023/12/23 07:39:13;;;;;;;;;;;5.90;99.90;;;;;;5034966;28;19928;-71
2023/12/23 07:41:43;;;;;;;;;;;6.00;99.90;;;;;;5035855;28;19928;-71
2023/12/23 07:44:09;;;;;;;;;;;6.00;99.90;;;;;;5035621;28;20581;-71
2023/12/23 07:46:34;;;;;;;;;;;5.80;99.90;;;;;;5037487;28;20163;-70
2023/12/23 07:49:03;;;;;;;;;;;5.80;99.90;;;;;;5031936;28;19931;-71
2023/12/23 07:51:33;;;;;;;;;;;5.80;99.90;;;;;;5034105;28;19972;-71
2023/12/23 07:53:58;;;;;;;;;;;5.80;99.90;;;;;;5035970;28;20684;-70
2023/12/23 07:56:25;;;;;;;;;;;5.80;99.90;;;;;;5034497;28;19920;-71
2023/12/23 07:58:51;;;;;;;;;;;5.80;99.90;;;;;;5033964;28;19982;-71
2023/12/23 08:01:19;;;;;;;;;;;5.80;99.90;;;;;;5036430;28;20387;-71
2023/12/23 08:03:46;;;;;;;;;;;5.80;99.90;;;;;;5036567;28;19916;-71
2023/12/23 08:06:12;;;;;;;;;;;5.80;99.90;;;;;;5037408;28;19916;-70
2023/12/23 08:08:37;;;;;;;;;;;5.70;99.90;;;;;;5035116;28;20029;-71
2023/12/23 08:11:03;;;;;;;;;;;5.80;99.90;;;;;;5037438;28;19921;-71
2023/12/23 08:13:29;;;;;;;;;;;5.70;99.90;;;;;;5036968;28;19994;-71
2023/12/23 08:15:57;;;;;;;;;;;5.70;99.90;;;;;;5036140;28;20065;-71
2023/12/23 08:18:24;;;;;;;;;;;5.70;99.90;;;;;;5039570;28;19921;-71
2023/12/23 08:20:50;;;;;;;;;;;5.70;99.90;;;;;;5036339;28;20599;-72
2023/12/23 08:23:15;;;;;;;;;;;5.60;99.90;;;;;;5035801;28;19920;-71
2023/12/23 08:25:41;;;;;;;;;;;5.60;99.90;;;;;;5021417;28;20019;-72
2023/12/23 08:28:07;;;;;;;;;;;5.70;99.90;;;;;;5023520;28;20386;-72
2023/12/23 08:30:34;;;;;;;;;;;5.60;99.90;;;;;;5022107;28;19928;-72
2023/12/23 08:33:03;;;;;;;;;;;5.70;99.90;;;;;;5023668;28;19924;-71
2023/12/23 08:35:31;;;;;;;;;;;5.60;99.90;;;;;;5020774;28;19931;-71
2023/12/23 08:37:57;;;;;;;;;;;5.60;99.90;;;;;;5020316;28;20061;-71
2023/12/23 08:40:23;;;;;;;;;;;5.70;99.90;;;;;;5021699;28;19923;-71
2023/12/23 08:42:51;;;;;;;;;;;5.80;99.90;;;;;;5022461;28;19916;-70
2023/12/23 08:45:17;;;;;;;;;;;5.60;99.90;;;;;;5020846;28;19921;-71
2023/12/23 08:47:43;;;;;;;;;;;5.70;99.90;;;;;;5023008;28;20026;-71
2023/12/23 08:50:08;;;;;;;;;;;5.70;99.90;;;;;;5022373;28;19917;-71
2023/12/23 08:52:34;;;;;;;;;;;5.70;99.90;;;;;;5020892;28;19927;-71
2023/12/23 08:55:02;;;;;;;;;;;5.70;99.90;;;;;;5018276;28;19921;-72
2023/12/23 08:57:27;;;;;;;;;;;5.70;99.90;;;;;;5022709;28;20524;-71
2023/12/23 08:59:53;;;;;;;;;;;5.70;99.90;;;;;;5019623;28;20649;-70
2023/12/23 09:02:18;;;;;;;;;;;5.70;99.90;;;;;;5026163;28;19927;-69
2023/12/23 09:04:46;;;;;;;;;;;5.70;99.90;;;;;;5025875;28;19913;-70
2023/12/23 09:07:12;;;;;;;;;;;5.70;99.90;;;;;;5026709;28;19921;-69
2023/12/23 09:09:41;;;;;;;;;;;5.70;99.90;;;;;;5021035;28;19927;-69
2023/12/23 09:12:07;;;;;;;;;;;5.70;99.90;;;;;;5026426;28;19925;-70
2023/12/23 09:14:32;;;;;;;;;;;5.70;99.90;;;;;;5022812;28;19931;-69
2023/12/23 09:16:58;;;;;;;;;;;5.70;99.90;;;;;;5022882;28;20046;-68
2023/12/23 09:19:23;;;;;;;;;;;5.60;99.90;;;;;;5020759;28;20041;-68
2023/12/23 09:21:48;;;;;;;;;;;5.50;99.90;;;;;;5022158;28;19924;-68
2023/12/23 09:24:14;;;;;;;;;;;5.50;99.90;;;;;;5020421;28;20683;-69
2023/12/23 09:26:41;;;;;;;;;;;5.60;99.90;;;;;;5023019;28;19929;-69
2023/12/23 09:29:07;;;;;;;;;;;5.60;99.90;;;;;;5021727;28;20430;-69
2023/12/23 09:31:33;;;;;;;;;;;5.60;99.90;;;;;;5019747;28;20657;-69
2023/12/23 09:33:58;;;;;;;;;;;5.60;99.90;;;;;;5020730;28;19960;-69
2023/12/23 09:36:24;;;;;;;;;;;5.60;99.90;;;;;;5031631;28;20004;-69
2023/12/23 09:38:50;;;;;;;;;;;5.60;99.90;;;;;;5018352;28;19994;-68
2023/12/23 09:41:15;;;;;;;;;;;5.70;99.90;;;;;;5021449;28;20320;-69
2023/12/23 09:43:41;;;;;;;;;;;5.70;99.90;;;;;;5024087;28;19917;-68
2023/12/23 09:46:07;;;;;;;;;;;5.70;99.90;;;;;;5024593;28;19959;-69
2023/12/23 09:48:33;;;;;;;;;;;5.60;99.90;;;;;;5026553;28;19921;-69
2023/12/23 09:51:01;;;;;;;;;;;5.60;99.90;;;;;;5021866;28;19928;-69
2023/12/23 09:53:29;;;;;;;;;;;5.60;99.90;;;;;;5019206;28;20297;-69
2023/12/23 09:55:55;;;;;;;;;;;5.40;99.90;;;;;;5018853;28;19921;-69
2023/12/23 09:58:21;;;;;;;;;;;5.40;99.90;;;;;;5023138;28;19917;-68
2023/12/23 10:00:46;;;;;;;;;;;5.40;99.90;;;;;;5020022;28;20219;-69
2023/12/23 10:03:12;;;;;;;;;;;5.50;99.90;;;;;;5021078;28;19920;-69
2023/12/23 10:05:42;;;;;;;;;;;5.50;99.90;;;;;;5018081;28;19966;-69
2023/12/23 10:08:07;;;;;;;;;;;5.40;99.90;;;;;;5020026;28;19921;-69
2023/12/23 10:10:33;;;;;;;;;;;5.40;99.90;;;;;;5017865;28;20389;-69
2023/12/23 10:12:58;;;;;;;;;;;5.40;99.90;;;;;;5019326;28;20096;-69
2023/12/23 10:15:26;;;;;;;;;;;5.50;99.90;;;;;;5018741;28;20149;-68
2023/12/23 10:17:52;;;;;;;;;;;5.40;99.90;;;;;;5020807;28;20483;-70
2023/12/23 10:20:20;;;;;;;;;;;5.40;99.90;;;;;;5024915;28;19956;-69
2023/12/23 10:22:45;;;;;;;;;;;5.40;99.90;;;;;;5021790;28;19991;-72
2023/12/23 10:25:13;;;;;;;;;;;5.40;99.90;;;;;;5018968;28;20812;-71
2023/12/23 10:27:40;;;;;;;;;;;5.30;99.90;;;;;;5020848;28;20434;-69
2023/12/23 10:30:10;;;;;;;;;;;5.40;99.90;;;;;;5021278;28;20184;-69
2023/12/23 10:32:36;;;;;;;;;;;5.50;99.90;;;;;;5021222;28;19928;-68
2023/12/23 10:35:02;;;;;;;;;;;5.40;99.90;;;;;;5017284;28;19928;-69
2023/12/23 10:37:28;;;;;;;;;;;5.40;99.90;;;;;;5019475;28;19921;-68
2023/12/23 10:39:57;;;;;;;;;;;5.40;99.90;;;;;;5019683;28;19921;-68
2023/12/23 10:42:23;;;;;;;;;;;5.40;99.90;;;;;;5020713;28;19920;-68
2023/12/23 10:44:53;;;;;;;;;;;5.40;99.90;;;;;;5016502;28;19920;-68
2023/12/23 10:47:18;;;;;;;;;;;5.60;99.90;;;;;;5023690;28;19924;-67
2023/12/23 10:49:45;;;;;;;;;;;5.60;99.90;;;;;;5022803;28;22402;-68
2023/12/23 10:52:14;;;;;;;;;;;5.50;99.90;;;;;;5019469;28;19924;-68
2023/12/23 10:54:39;;;;;;;;;;;5.60;99.90;;;;;;5034066;28;19929;-69
2023/12/23 10:57:07;;;;;;;;;;;5.60;99.90;;;;;;5019353;28;19928;-69
2023/12/23 10:59:33;;;;;;;;;;;5.60;99.90;;;;;;5018472;28;19925;-69
2023/12/23 11:02:00;;;;;;;;;;;5.60;99.90;;;;;;5025473;28;19920;-68
2023/12/23 11:04:27;;;;;;;;;;;5.70;99.90;;;;;;5023601;28;19927;-69
2023/12/23 11:06:53;;;;;;;;;;;5.60;99.90;;;;;;5025898;28;19927;-69
2023/12/23 11:09:20;;;;;;;;;;;5.60;99.90;;;;;;5020333;28;19971;-71
2023/12/23 11:11:46;;;;;;;;;;;5.60;99.90;;;;;;5020675;28;19921;-69
2023/12/23 11:14:13;;;;;;;;;;;5.60;99.90;;;;;;5019120;28;19925;-69
2023/12/23 11:16:39;;;;;;;;;;;5.70;99.90;;;;;;5026509;28;19940;-69
2023/12/23 11:19:07;;;;;;;;;;;5.60;99.90;;;;;;5022804;28;19916;-69
2023/12/23 11:21:35;;;;;;;;;;;5.60;99.90;;;;;;5023387;28;19921;-69
2023/12/23 11:24:00;;;;;;;;;;;5.70;99.90;;;;;;5037525;28;19920;-68
2023/12/23 11:26:35;;;;;;;;;;;5.70;99.90;;;;;;5021264;28;19927;-69
2023/12/23 11:29:06;;;;;;;;;;;5.80;99.90;;;;;;5019666;28;19928;-65
2023/12/23 11:31:32;;;;;;;;;;;5.80;99.90;;;;;;5020852;28;20049;-69
2023/12/23 11:34:00;;;;;;;;;;;5.70;99.90;;;;;;5017347;28;19921;-69
2023/12/23 11:36:26;;;;;;;;;;;5.70;99.90;;;;;;5021138;28;19926;-70
2023/12/23 11:38:52;;;;;;;;;;;5.80;99.90;;;;;;5019506;28;19960;-69
2023/12/23 11:41:20;;;;;;;;;;;5.80;99.90;;;;;;5017646;28;19921;-69
2023/12/23 11:43:49;;;;;;;;;;;5.70;99.90;;;;;;5023641;28;20362;-70
2023/12/23 11:46:16;;;;;;;;;;;5.80;99.90;;;;;;5021774;28;21330;-70
2023/12/23 11:48:41;;;;;;;;;;;5.80;99.90;;;;;;5019995;28;19928;-69
2023/12/23 11:51:07;;;;;;;;;;;5.80;99.90;;;;;;5019683;28;19916;-70
2023/12/23 11:53:35;;;;;;;;;;;5.80;99.90;;;;;;5020850;28;20023;-69
2023/12/23 11:56:04;;;;;;;;;;;5.70;99.90;;;;;;5020871;28;19920;-70
2023/12/23 11:58:30;;;;;;;;;;;5.70;99.90;;;;;;5020836;28;19921;-70
2023/12/23 12:00:56;;;;;;;;;;;5.80;99.90;;;;;;5020201;28;20448;-69
2023/12/23 12:03:23;;;;;;;;;;;5.70;99.90;;;;;;5024015;28;19921;-69
2023/12/23 12:05:48;;;;;;;;;;;5.70;99.90;;;;;;5021402;28;19916;-69
2023/12/23 12:08:17;;;;;;;;;;;5.70;99.90;;;;;;5023274;28;19921;-70
2023/12/23 12:10:42;;;;;;;;;;;5.70;99.90;;;;;;5022727;28;22468;-69
2023/12/23 12:13:08;;;;;;;;;;;5.70;99.90;;;;;;5022935;28;20091;-70
2023/12/23 12:15:33;;;;;;;;;;;5.70;99.90;;;;;;5026291;28;20684;-70
2023/12/23 12:17:59;;;;;;;;;;;5.80;99.90;;;;;;5025019;28;19916;-70
2023/12/23 12:20:24;;;;;;;;;;;5.80;99.90;;;;;;5018638;28;19921;-76
2023/12/23 12:22:50;;;;;;;;;;;5.80;99.90;;;;;;5024384;28;19921;-71
2023/12/23 12:25:17;;;;;;;;;;;5.80;99.90;;;;;;5022754;28;20518;-70
2023/12/23 12:27:45;;;;;;;;;;;5.80;99.90;;;;;;5033174;22;19929;-69
2023/12/23 12:30:11;;;;;;;;;;;5.70;99.90;;;;;;5026775;28;19959;-69
2023/12/23 12:32:46;;;;;;;;;;;5.70;99.90;;;;;;5033351;28;19963;-69
2023/12/23 12:35:12;;;;;;;;;;;5.70;99.90;;;;;;5025663;28;19921;-70
2023/12/23 12:37:41;;;;;;;;;;;5.80;99.90;;;;;;5027896;28;20259;-70
2023/12/23 12:40:10;;;;;;;;;;;5.90;99.90;;;;;;5026656;28;20049;-70
2023/12/23 12:42:35;;;;;;;;;;;5.90;99.90;;;;;;5026517;28;19920;-70
2023/12/23 12:45:05;;;;;;;;;;;6.00;99.90;;;;;;5025465;28;19924;-70
2023/12/23 12:47:31;;;;;;;;;;;6.00;99.90;;;;;;5026898;22;20003;-71
2023/12/23 12:50:01;;;;;;;;;;;5.90;99.90;;;;;;5008086;28;20370;-71
2023/12/23 12:52:27;;;;;;;;;;;6.00;99.90;;;;;;5004502;28;19921;-70
2023/12/23 12:54:55;;;;;;;;;;;5.90;99.90;;;;;;5005687;28;20684;-71
2023/12/23 12:57:21;;;;;;;;;;;6.00;99.90;;;;;;5005546;28;19921;-71
2023/12/23 12:59:47;;;;;;;;;;;6.10;99.90;;;;;;5006092;28;19932;-72
2023/12/23 13:02:16;;;;;;;;;;;6.10;99.90;;;;;;5004799;28;19928;-71
2023/12/23 13:04:41;;;;;;;;;;;6.10;99.90;;;;;;5007305;28;21255;-71
2023/12/23 13:07:09;;;;;;;;;;;6.00;99.90;;;;;;5004411;28;19932;-72
2023/12/23 13:09:34;;;;;;;;;;;6.10;99.90;;;;;;5002220;28;19964;-72
2023/12/23 13:12:00;;;;;;;;;;;6.00;99.90;;;;;;5003376;28;19913;-72
2023/12/23 13:14:25;;;;;;;;;;;6.10;99.90;;;;;;5005274;28;19938;-72
2023/12/23 13:16:51;;;;;;;;;;;6.00;99.90;;;;;;5002604;28;19999;-72
2023/12/23 13:19:18;;;;;;;;;;;6.00;99.90;;;;;;5004309;28;19924;-72
2023/12/23 13:21:44;;;;;;;;;;;6.10;99.90;;;;;;5006015;28;19921;-72
2023/12/23 13:24:10;;;;;;;;;;;6.20;99.90;;;;;;5004662;28;19921;-72
2023/12/23 13:26:36;;;;;;;;;;;6.20;99.90;;;;;;5005292;28;19921;-72
2023/12/23 13:29:01;;;;;;;;;;;6.20;99.90;;;;;;5006424;28;20002;-72
2023/12/23 13:31:27;;;;;;;;;;;6.20;99.90;;;;;;5003688;28;20083;-72
2023/12/23 13:33:55;;;;;;;;;;;6.20;99.90;;;;;;5002561;28;20380;-71
2023/12/23 13:36:21;;;;;;;;;;;6.20;99.90;;;;;;5005202;28;19921;-72
2023/12/23 13:38:49;;;;;;;;;;;6.20;99.90;;;;;;5003487;28;19922;-71
2023/12/23 13:41:20;;;;;;;;;;;6.20;99.90;;;;;;5006558;28;19921;-71
2023/12/23 13:43:45;;;;;;;;;;;6.20;99.90;;;;;;5002251;28;20478;-72
2023/12/23 13:46:12;;;;;;;;;;;6.30;99.90;;;;;;5003794;28;20024;-72
2023/12/23 13:48:37;;;;;;;;;;;6.30;99.90;;;;;;5003843;28;19925;-72
2023/12/23 13:51:04;;;;;;;;;;;6.20;99.90;;;;;;5005604;28;19921;-72
2023/12/23 13:53:30;;;;;;;;;;;6.20;99.90;;;;;;5002925;28;19947;-71
2023/12/23 13:55:57;;;;;;;;;;;6.20;99.90;;;;;;5004184;28;20497;-72
2023/12/23 13:58:23;;;;;;;;;;;6.30;99.90;;;;;;5003854;28;19921;-72
2023/12/23 14:00:53;;;;;;;;;;;6.30;99.90;;;;;;5002340;28;19917;-72
2023/12/23 14:03:18;;;;;;;;;;;6.20;99.90;;;;;;5003294;28;20011;-72
2023/12/23 14:05:44;;;;;;;;;;;6.20;99.90;;;;;;5005927;28;20737;-72
2023/12/23 14:08:10;;;;;;;;;;;6.20;99.90;;;;;;5004568;28;19964;-72
2023/12/23 14:10:36;;;;;;;;;;;6.20;99.90;;;;;;5004799;28;20094;-72
2023/12/23 14:13:01;;;;;;;;;;;6.10;99.90;;;;;;5017641;28;20299;-72
2023/12/23 14:15:26;;;;;;;;;;;6.20;99.90;;;;;;5005148;28;22747;-71
2023/12/23 14:17:52;;;;;;;;;;;6.10;99.90;;;;;;5003333;28;21319;-72
2023/12/23 14:20:18;;;;;;;;;;;6.20;99.90;;;;;;5004355;28;19921;-72
2023/12/23 14:22:43;;;;;;;;;;;6.20;99.90;;;;;;5001890;28;20032;-72
2023/12/23 14:25:09;;;;;;;;;;;6.30;99.90;;;;;;5004161;28;22486;-72